Portada
METAR-TAF:

METAR-TAF

Aeropuertos :

Bagdad, Iraq

Aeropuerto Internacional de Bagdad

latitud: 33-15-45N, longitud: 44-14-04E, altitud: 35 m

Observación

El informe se hizo hace 15 minutos, a las 02:00 UTC
Viento 5 kt del oeste
Temperatura 15°C
Humedad 33%
Presión 1014 hPa
Visibilidad 10 km o más
sin nubes por debajo de 1500 m y sin presencia de cumulonimbus.

METAR: ORBI 260200Z 28005KT CAVOK 15/M01 Q1014 NOSIG

Hora: 05:15 (02:15 UTC)

Pronóstico

El informe se hizo hace 3 horas y 15 minutos, a las 23:00 UTC
Pronóstico válido del 26 a las 00 UTC al 26 a las 24 UTC
Viento 12 kt del noroeste
Visibilidad: 8000 m

TAF: ORBI 252300Z 2600/2624 31012KT 8000 NSC

Observaciones y pronósticos meteorológicos de más de 4000 aeropuertos (mensajes METAR y TAF).

Los puntos amarillos y rojos representan las estaciones disponibles.

Ponga el ratón en el punto deseado para ver el nombre de la estación.

Haga clic para ver las observaciones y los pronósticos meteorológicos.

Para cambiar el mapa : haga clic en los botones verdes con una cruz de color negro para hacer un zoom, en el botón verde con un guión para alejar o en las flechas verdes para mapas adyacentes.


METAR-TAF: